createdAt,value
2017-04-08T20:05:40.712Z,5.92
2017-04-08T20:06:41.232Z,5.06
2017-04-08T20:07:41.072Z,5.66
2017-04-08T20:08:40.888Z,5.14
2017-04-08T20:09:40.688Z,5.26
2017-04-08T20:10:40.476Z,5.20
2017-04-08T20:11:40.280Z,4.44
2017-04-08T20:12:40.076Z,4.74
2017-04-08T20:13:39.868Z,4.77
2017-04-08T20:14:39.628Z,4.87
2017-04-08T20:15:40.296Z,5.53
2017-04-08T20:16:40.052Z,4.93
2017-04-08T20:17:39.800Z,5.30
2017-04-08T20:18:39.568Z,5.03
2017-04-08T20:19:40.065Z,5.17
2017-04-08T20:20:39.876Z,4.87
2017-04-08T20:21:39.620Z,4.36
2017-04-08T20:22:39.352Z,4.90
2017-04-08T20:23:39.112Z,4.36
2017-04-08T20:24:39.088Z,5.04
2017-04-08T20:25:38.843Z,4.84
2017-04-08T20:26:38.551Z,4.90
2017-04-08T20:27:38.324Z,4.50
2017-04-08T20:28:38.244Z,4.20
2017-04-08T20:29:38.000Z,5.01
2017-04-08T20:30:38.515Z,5.07
2017-04-08T20:31:39.016Z,4.01
2017-04-08T20:32:38.767Z,5.23
2017-04-08T20:33:38.528Z,4.49
2017-04-08T20:34:38.299Z,4.64
2017-04-08T20:35:38.028Z,4.70
2017-04-08T20:36:37.796Z,4.38
2017-04-08T20:37:37.568Z,4.47
2017-04-08T20:38:37.367Z,4.97
2017-04-08T20:39:37.160Z,4.30
2017-04-08T20:40:36.937Z,4.59
2017-04-08T20:41:36.699Z,4.51
2017-04-08T20:42:36.475Z,4.37
2017-04-08T20:43:36.280Z,4.03
2017-04-08T20:44:36.047Z,4.29
2017-04-08T20:45:36.547Z,4.46
2017-04-08T20:46:36.287Z,3.74
2017-04-08T20:47:36.027Z,4.51
2017-04-08T20:48:35.777Z,4.10
2017-04-08T20:49:36.276Z,4.01
2017-04-08T20:50:36.064Z,4.27
2017-04-08T20:51:35.832Z,4.31
2017-04-08T20:52:35.636Z,4.74
2017-04-08T20:53:35.400Z,4.94
2017-04-08T20:54:35.148Z,4.27
2017-04-08T20:55:34.899Z,4.46
2017-04-08T20:56:35.377Z,3.83
2017-04-08T20:57:35.164Z,5.06
2017-04-08T20:58:34.935Z,4.24
2017-04-08T20:59:35.439Z,4.51
2017-04-08T21:00:35.164Z,4.07
2017-04-08T21:01:34.915Z,3.87
2017-04-08T21:02:34.676Z,4.86
2017-04-08T21:03:34.460Z,4.20
2017-04-08T21:04:34.267Z,3.97
2017-04-08T21:05:34.039Z,4.63
2017-04-08T21:06:33.775Z,3.53
2017-04-08T21:07:33.531Z,4.81
2017-04-08T21:08:33.293Z,3.57
2017-04-08T21:09:33.083Z,4.01
2017-04-08T21:10:32.831Z,3.86
2017-04-08T21:11:32.780Z,4.09
2017-04-08T21:12:32.520Z,3.94
2017-04-08T21:13:32.279Z,3.73
2017-04-08T21:14:32.031Z,3.56
2017-04-08T21:15:31.775Z,4.06
2017-04-08T21:16:31.519Z,3.71
2017-04-08T21:17:31.252Z,3.74
2017-04-08T21:18:31.747Z,3.94
2017-04-08T21:19:31.484Z,3.86
2017-04-08T21:20:31.218Z,3.84
2017-04-08T21:21:30.959Z,4.06
2017-04-08T21:22:30.703Z,3.91
2017-04-08T21:23:30.435Z,3.97
2017-04-08T21:24:30.679Z,3.44
2017-04-08T21:25:30.647Z,3.87
2017-04-08T21:26:30.420Z,3.29
2017-04-08T21:27:30.255Z,3.39
2017-04-08T21:28:29.976Z,3.97
2017-04-08T21:29:29.727Z,3.74
2017-04-08T21:30:29.435Z,2.97
2017-04-08T21:31:32.239Z,3.59
2017-04-08T21:32:32.183Z,3.37
2017-04-08T21:33:37.948Z,3.54
2017-04-08T21:34:44.183Z,3.90
2017-04-08T21:35:50.003Z,3.43
2017-04-08T21:36:55.659Z,3.49
2017-04-08T21:38:01.004Z,2.96
2017-04-08T21:39:07.235Z,3.23
2017-04-08T21:40:14.651Z,2.83
2017-04-08T21:41:20.835Z,3.36
2017-04-08T21:42:26.343Z,3.24
2017-04-08T21:43:31.835Z,3.37
2017-04-08T21:44:37.347Z,3.39
2017-04-08T21:45:42.791Z,3.01
2017-04-08T21:46:48.240Z,3.40
2017-04-08T21:47:55.515Z,3.09
2017-04-08T21:49:01.854Z,3.50
2017-04-08T21:50:02.067Z,3.53
2017-04-08T21:51:01.839Z,3.17
2017-04-08T21:52:01.599Z,3.66
2017-04-08T21:53:01.452Z,3.04
2017-04-08T21:54:01.203Z,3.50
2017-04-08T21:55:01.007Z,2.59
2017-04-08T21:56:00.779Z,3.09
2017-04-08T21:57:00.595Z,2.93
2017-04-08T21:58:01.075Z,3.24
2017-04-08T21:59:00.814Z,2.89
2017-04-08T22:00:00.534Z,2.71
2017-04-08T22:01:00.351Z,2.81
2017-04-08T22:02:00.151Z,2.91
2017-04-08T22:02:59.887Z,3.17
2017-04-08T22:03:59.594Z,3.49
2017-04-08T22:04:59.398Z,3.01
2017-04-08T22:05:59.891Z,3.44
2017-04-08T22:06:59.806Z,3.53
2017-04-08T22:07:59.558Z,2.77
2017-04-08T22:08:59.347Z,3.69
2017-04-08T22:09:59.138Z,3.14
2017-04-08T22:10:59.698Z,3.20
2017-04-08T22:11:59.422Z,3.21
2017-04-08T22:12:59.146Z,2.96
2017-04-08T22:13:59.654Z,3.47
2017-04-08T22:14:59.394Z,2.97
2017-04-08T22:15:59.206Z,2.67
2017-04-08T22:16:58.974Z,3.11
2017-04-08T22:17:58.734Z,3.25
2017-04-08T22:18:58.507Z,2.76
2017-04-08T22:19:58.262Z,2.79
2017-04-08T22:20:58.003Z,3.31
2017-04-08T22:21:57.750Z,3.17
2017-04-08T22:22:57.534Z,2.96
2017-04-08T22:23:57.324Z,3.36
2017-04-08T22:24:57.050Z,3.07
2017-04-08T22:25:56.796Z,2.56
2017-04-08T22:26:56.571Z,3.00
2017-04-08T22:27:56.306Z,3.36
2017-04-08T22:28:56.062Z,2.94
2017-04-08T22:29:55.839Z,2.74
2017-04-08T22:30:55.650Z,2.80
2017-04-08T22:31:55.394Z,2.97
2017-04-08T22:32:55.895Z,3.00
2017-04-08T22:33:56.451Z,3.21
2017-04-08T22:34:56.233Z,3.06
2017-04-08T22:35:56.714Z,2.80
2017-04-08T22:36:56.983Z,2.74
2017-04-08T22:37:56.722Z,3.09
2017-04-08T22:38:56.522Z,2.59
2017-04-08T22:39:56.395Z,2.56
2017-04-08T22:40:56.919Z,2.97
2017-04-08T22:41:56.734Z,2.89
2017-04-08T22:42:56.583Z,2.57
2017-04-08T22:43:57.063Z,3.01
2017-04-08T22:44:56.810Z,2.53
2017-04-08T22:45:57.324Z,3.29
2017-04-08T22:46:57.850Z,2.97
2017-04-08T22:47:57.654Z,2.90
2017-04-08T22:48:58.143Z,2.71
2017-04-08T22:49:58.227Z,2.64
2017-04-08T22:50:57.882Z,2.76
2017-04-08T22:51:57.615Z,2.69
2017-04-08T22:52:57.375Z,2.77
2017-04-08T22:53:57.078Z,2.39
2017-04-08T22:54:57.558Z,2.67
2017-04-08T22:55:57.346Z,3.13
2017-04-08T22:56:57.082Z,2.63
2017-04-08T22:57:56.866Z,3.03
2017-04-08T22:58:56.583Z,2.33
2017-04-08T22:59:57.082Z,2.69
2017-04-08T23:00:56.894Z,2.27
2017-04-08T23:01:56.710Z,3.29
2017-04-08T23:02:57.254Z,3.03
2017-04-08T23:03:57.006Z,2.93
2017-04-08T23:04:56.754Z,2.09
2017-04-08T23:05:56.502Z,2.76
2017-04-08T23:06:56.237Z,2.71
2017-04-08T23:07:56.730Z,2.44
2017-04-08T23:08:56.470Z,2.21
2017-04-08T23:09:56.229Z,3.04
2017-04-08T23:10:55.970Z,2.39
2017-04-08T23:11:55.703Z,2.73
2017-04-08T23:12:55.498Z,2.44
2017-04-08T23:13:55.267Z,2.21
2017-04-08T23:14:55.766Z,2.57
2017-04-08T23:15:55.466Z,2.50
2017-04-08T23:16:55.966Z,2.67
2017-04-08T23:17:55.701Z,2.44
2017-04-08T23:18:55.502Z,2.84
2017-04-08T23:19:55.241Z,2.36
2017-04-08T23:20:54.990Z,2.43
2017-04-08T23:21:55.457Z,2.51
2017-04-08T23:22:55.183Z,2.46
2017-04-08T23:23:54.957Z,2.30
2017-04-08T23:24:55.434Z,2.00
2017-04-08T23:25:55.158Z,2.23
2017-04-08T23:26:54.858Z,2.47
2017-04-08T23:27:54.586Z,2.66
2017-04-08T23:28:54.377Z,2.47
2017-04-08T23:29:54.109Z,2.44
2017-04-08T23:30:53.825Z,2.43
2017-04-08T23:31:53.562Z,2.37
2017-04-08T23:32:53.305Z,2.17
2017-04-08T23:33:53.093Z,2.69
2017-04-08T23:34:57.638Z,2.66
2017-04-08T23:35:57.692Z,2.79
2017-04-08T23:36:57.413Z,2.59
2017-04-08T23:37:57.122Z,2.49
2017-04-08T23:38:56.922Z,1.94
2017-04-08T23:39:56.626Z,2.26
2017-04-08T23:40:56.413Z,1.77
2017-04-08T23:41:56.174Z,2.03
2017-04-08T23:42:55.922Z,2.29
2017-04-08T23:43:55.669Z,2.50
2017-04-08T23:44:55.405Z,2.03
2017-04-08T23:45:55.154Z,2.36
2017-04-08T23:46:55.621Z,2.93
2017-04-08T23:47:55.359Z,1.86
2017-04-08T23:48:55.094Z,2.33
2017-04-08T23:49:54.829Z,2.54
2017-04-08T23:50:54.601Z,2.63
2017-04-08T23:51:55.122Z,1.87
2017-04-08T23:52:54.861Z,2.16
2017-04-08T23:53:54.654Z,2.66
2017-04-08T23:54:54.409Z,2.09
2017-04-08T23:55:54.154Z,2.10
2017-04-08T23:56:53.905Z,2.34
2017-04-08T23:57:53.678Z,1.76
2017-04-08T23:58:53.401Z,2.29
2017-04-08T23:59:53.973Z,2.04
